Time;durP1;ratioP1;P1;durP2;ratioP2;P2;SDS_P1;SDS_P2;PMS_P1;PMS_P2;Temp;Humidity;BMP_temperature;BMP_pressure;BME280_temperature;BME280_humidity;BME280_pressure;Samples;Min_cycle;Max_cycle;Signal;HPM_P1;HPM_P2
2021/06/06 00:00:45;;;;;;;9.32;4.78;;;17.30;91.60;;;;;;5095649;28;20024;-74
2021/06/06 00:03:16;;;;;;;12.48;5.53;;;17.40;91.70;;;;;;5094978;28;20030;-74
2021/06/06 00:05:55;;;;;;;9.35;4.88;;;17.30;91.60;;;;;;5096037;28;20031;-74
2021/06/06 00:08:23;;;;;;;8.25;4.70;;;17.30;91.70;;;;;;5095094;28;20100;-74
2021/06/06 00:10:50;;;;;;;9.77;4.75;;;17.20;91.50;;;;;;5095577;28;20034;-74
2021/06/06 00:13:17;;;;;;;8.55;4.70;;;17.20;91.60;;;;;;5094840;28;20115;-74
2021/06/06 00:15:44;;;;;;;7.47;4.22;;;17.10;91.70;;;;;;5095243;28;20031;-74
2021/06/06 00:18:11;;;;;;;7.18;4.53;;;17.20;91.80;;;;;;5095139;28;20027;-74
2021/06/06 00:20:37;;;;;;;8.40;5.03;;;17.20;91.70;;;;;;5094584;28;20537;-74
2021/06/06 00:23:04;;;;;;;10.25;4.80;;;17.10;91.80;;;;;;5095221;28;20032;-74
2021/06/06 00:25:30;;;;;;;11.23;5.60;;;17.10;91.80;;;;;;5113454;28;20051;-74
2021/06/06 00:27:55;;;;;;;9.15;4.55;;;17.10;91.90;;;;;;5095461;28;20468;-74
2021/06/06 00:30:22;;;;;;;10.10;4.90;;;17.10;91.90;;;;;;5112762;28;20028;-75
2021/06/06 00:32:48;;;;;;;9.00;4.97;;;17.10;91.90;;;;;;5113309;28;20068;-74
2021/06/06 00:35:15;;;;;;;12.88;5.63;;;17.10;91.90;;;;;;5094793;28;20376;-75
2021/06/06 00:37:41;;;;;;;11.57;5.65;;;17.00;91.90;;;;;;5095769;28;20024;-75
2021/06/06 00:40:09;;;;;;;8.88;5.10;;;17.00;91.90;;;;;;5095281;28;20031;-74
2021/06/06 00:42:35;;;;;;;10.85;5.30;;;17.00;91.90;;;;;;5112785;28;20031;-74
2021/06/06 00:45:01;;;;;;;8.45;4.82;;;17.00;91.90;;;;;;5095593;28;20475;-74
2021/06/06 00:47:29;;;;;;;9.27;5.07;;;17.00;92.00;;;;;;5094741;28;20124;-75
2021/06/06 00:49:55;;;;;;;9.90;5.13;;;17.10;92.00;;;;;;5113506;28;20023;-74
2021/06/06 00:52:21;;;;;;;9.85;4.90;;;17.10;91.90;;;;;;5094646;28;20110;-75
2021/06/06 00:54:48;;;;;;;10.32;5.75;;;17.00;91.90;;;;;;5095185;28;20032;-74
2021/06/06 00:57:14;;;;;;;9.13;5.13;;;17.00;91.90;;;;;;5095273;28;20028;-74
2021/06/06 00:59:46;;;;;;;10.43;5.75;;;17.00;92.00;;;;;;5094732;28;20454;-74
2021/06/06 01:02:12;;;;;;;10.88;5.70;;;16.90;92.10;;;;;;5113101;28;20477;-74
2021/06/06 01:04:39;;;;;;;11.45;5.68;;;16.90;92.10;;;;;;5094400;28;20028;-75
2021/06/06 01:07:05;;;;;;;8.55;5.03;;;16.90;92.10;;;;;;5113299;28;20028;-74
2021/06/06 01:09:31;;;;;;;9.88;5.47;;;17.00;92.00;;;;;;5094232;28;20380;-74
2021/06/06 01:12:08;;;;;;;11.93;5.95;;;16.90;92.00;;;;;;5113096;28;20052;-73
2021/06/06 01:15:07;;;;;;;13.30;6.00;;;17.00;92.10;;;;;;5094399;28;20047;-73
2021/06/06 01:17:40;;;;;;;10.95;5.90;;;16.90;92.20;;;;;;5093954;28;20028;-73
2021/06/06 01:20:38;;;;;;;12.20;5.78;;;16.90;92.20;;;;;;5113252;28;20036;-73
2021/06/06 01:23:27;;;;;;;10.73;5.53;;;16.90;92.20;;;;;;5112207;28;20074;-73
2021/06/06 01:26:00;;;;;;;10.70;5.68;;;16.90;92.30;;;;;;5094936;28;20051;-73
2021/06/06 01:28:33;;;;;;;10.32;5.90;;;16.90;92.20;;;;;;5112756;28;20038;-73
2021/06/06 01:31:01;;;;;;;10.23;6.10;;;16.90;92.30;;;;;;5094699;28;20031;-73
2021/06/06 01:33:44;;;;;;;12.57;6.53;;;16.90;92.30;;;;;;5094047;28;20026;-73
2021/06/06 01:36:18;;;;;;;12.90;5.88;;;16.80;92.30;;;;;;5094812;28;20118;-73
2021/06/06 01:38:52;;;;;;;12.50;6.13;;;16.80;92.40;;;;;;5112899;28;20031;-74
2021/06/06 01:41:22;;;;;;;12.82;6.70;;;16.90;92.40;;;;;;5094466;28;20067;-75
2021/06/06 01:43:51;;;;;;;10.05;5.60;;;16.90;92.40;;;;;;5112533;28;20024;-74
2021/06/06 01:46:33;;;;;;;9.95;5.93;;;16.90;92.50;;;;;;5112828;28;20024;-73
2021/06/06 01:49:00;;;;;;;12.35;6.63;;;16.90;92.50;;;;;;5094548;28;20030;-74
2021/06/06 01:51:36;;;;;;;11.70;6.30;;;16.90;92.40;;;;;;5094076;28;20089;-74
2021/06/06 01:54:05;;;;;;;11.45;5.68;;;16.90;92.50;;;;;;5094447;28;20026;-74
2021/06/06 01:56:33;;;;;;;11.98;6.22;;;16.90;92.40;;;;;;5093689;28;20031;-74
2021/06/06 01:59:03;;;;;;;14.05;6.07;;;16.90;92.40;;;;;;5112342;28;20020;-74
2021/06/06 02:01:29;;;;;;;12.88;6.10;;;16.90;92.50;;;;;;5112164;28;20072;-74
2021/06/06 02:03:57;;;;;;;13.60;6.05;;;16.90;92.50;;;;;;5112743;28;20027;-74
2021/06/06 02:06:52;;;;;;;11.82;5.97;;;16.80;92.50;;;;;;5093803;28;20031;-74
2021/06/06 02:09:23;;;;;;;11.00;6.25;;;16.80;92.70;;;;;;5112525;28;20024;-74
2021/06/06 02:11:52;;;;;;;11.45;6.10;;;16.80;92.70;;;;;;5094743;28;20020;-74
2021/06/06 02:14:29;;;;;;;12.32;5.97;;;16.80;92.60;;;;;;5094311;28;20035;-74
2021/06/06 02:16:58;;;;;;;13.68;6.35;;;16.80;92.80;;;;;;5094320;28;20035;-74
2021/06/06 02:19:26;;;;;;;13.48;6.03;;;16.80;92.70;;;;;;5093542;28;20381;-74
2021/06/06 02:21:53;;;;;;;11.93;5.95;;;16.80;92.80;;;;;;5094684;28;20441;-74
2021/06/06 02:24:19;;;;;;;13.43;5.75;;;16.70;92.80;;;;;;5116466;28;20082;-74
2021/06/06 02:26:55;;;;;;;14.13;6.82;;;16.70;92.90;;;;;;5115687;28;20032;-74
2021/06/06 02:29:26;;;;;;;12.15;6.30;;;16.70;93.00;;;;;;5097459;28;20089;-74
2021/06/06 02:32:04;;;;;;;13.25;6.50;;;16.80;92.90;;;;;;5098144;28;20051;-74
2021/06/06 02:34:35;;;;;;;15.95;7.03;;;16.70;93.00;;;;;;5115499;28;20024;-74
2021/06/06 02:37:21;;;;;;;15.85;6.45;;;16.80;92.90;;;;;;5116202;28;20027;-74
2021/06/06 02:39:51;;;;;;;13.73;6.15;;;16.80;92.80;;;;;;5115672;28;20032;-74
2021/06/06 02:42:22;;;;;;;13.43;6.60;;;16.80;92.80;;;;;;5097806;28;20096;-74
2021/06/06 02:44:52;;;;;;;13.10;6.70;;;16.80;92.80;;;;;;5116374;28;20051;-74
2021/06/06 02:47:25;;;;;;;14.65;6.97;;;16.80;92.80;;;;;;5097785;28;20158;-74
2021/06/06 02:49:53;;;;;;;13.02;6.10;;;16.80;92.70;;;;;;5115864;28;20102;-74
2021/06/06 02:52:39;;;;;;;12.25;6.28;;;16.80;92.90;;;;;;5115509;28;20023;-74
2021/06/06 02:55:30;;;;;;;12.75;6.50;;;16.80;92.90;;;;;;5115733;28;20039;-74
2021/06/06 02:58:05;;;;;;;14.30;6.22;;;16.80;92.70;;;;;;5097727;28;20132;-74
2021/06/06 03:00:39;;;;;;;12.02;6.38;;;16.90;92.60;;;;;;5115024;28;20414;-74
2021/06/06 03:03:23;;;;;;;15.93;6.55;;;16.80;92.50;;;;;;5097292;28;20073;-74
2021/06/06 03:05:52;;;;;;;12.63;6.57;;;16.80;92.60;;;;;;5097488;28;20023;-75
2021/06/06 03:08:18;;;;;;;12.30;6.80;;;16.80;92.60;;;;;;5115431;28;20031;-74
2021/06/06 03:10:43;;;;;;;12.95;6.50;;;16.80;92.60;;;;;;5114539;28;20035;-74
2021/06/06 03:13:30;;;;;;;12.95;6.60;;;16.70;92.60;;;;;;5115427;28;20024;-74
2021/06/06 03:15:58;;;;;;;15.55;6.85;;;16.70;92.80;;;;;;5097035;28;20027;-74
2021/06/06 03:18:27;;;;;;;14.27;6.13;;;16.70;92.80;;;;;;5114330;28;20479;-74
2021/06/06 03:21:02;;;;;;;14.25;6.70;;;16.60;92.90;;;;;;5096869;28;20031;-74
2021/06/06 03:23:30;;;;;;;11.70;6.22;;;16.50;92.90;;;;;;5095840;28;20042;-74
2021/06/06 03:26:03;;;;;;;12.52;6.20;;;16.60;92.90;;;;;;5115195;28;20496;-74
2021/06/06 03:28:33;;;;;;;14.63;7.05;;;16.60;92.80;;;;;;5096458;28;20051;-74
2021/06/06 03:31:05;;;;;;;15.20;7.13;;;16.60;92.90;;;;;;5096269;28;20020;-73
2021/06/06 03:33:43;;;;;;;13.60;6.25;;;16.60;92.90;;;;;;5096098;28;20053;-74
2021/06/06 03:36:12;;;;;;;16.80;7.15;;;16.60;92.90;;;;;;5115047;28;20456;-74
2021/06/06 03:38:38;;;;;;;16.55;7.40;;;16.70;92.90;;;;;;5095877;28;20028;-74
2021/06/06 03:41:03;;;;;;;12.23;6.72;;;16.70;92.90;;;;;;5096490;28;20411;-74
2021/06/06 03:43:29;;;;;;;11.32;5.90;;;16.60;92.90;;;;;;5095949;28;20053;-74
2021/06/06 03:45:55;;;;;;;13.48;6.25;;;16.60;93.00;;;;;;5096530;28;20034;-74
2021/06/06 03:48:21;;;;;;;9.13;5.68;;;16.50;93.00;;;;;;5096444;28;20376;-74
2021/06/06 03:50:51;;;;;;;12.63;6.07;;;16.50;93.00;;;;;;5113994;28;20050;-74
2021/06/06 03:53:22;;;;;;;12.07;5.85;;;16.50;93.10;;;;;;5114422;28;20062;-74
2021/06/06 03:55:48;;;;;;;11.18;6.20;;;16.50;93.20;;;;;;5095648;28;20042;-74
2021/06/06 03:58:14;;;;;;;11.32;5.90;;;16.50;93.30;;;;;;5096119;28;20380;-74
2021/06/06 04:00:47;;;;;;;11.68;5.97;;;16.50;93.30;;;;;;5095530;28;20039;-74
2021/06/06 04:03:14;;;;;;;11.05;5.60;;;16.40;93.30;;;;;;5096310;28;20046;-73
2021/06/06 04:05:41;;;;;;;11.55;5.50;;;16.40;93.50;;;;;;5095482;28;20027;-74
2021/06/06 04:08:08;;;;;;;11.05;5.80;;;16.40;93.40;;;;;;5114263;28;20053;-73
2021/06/06 04:10:35;;;;;;;10.57;6.03;;;16.40;93.50;;;;;;5095338;28;20034;-74
2021/06/06 04:13:00;;;;;;;11.77;6.05;;;16.40;93.60;;;;;;5095866;28;20495;-74
2021/06/06 04:15:26;;;;;;;10.55;5.82;;;16.40;93.50;;;;;;5095939;28;20035;-73
2021/06/06 04:17:53;;;;;;;9.95;5.25;;;16.50;93.40;;;;;;5095831;28;20467;-74
2021/06/06 04:20:20;;;;;;;10.25;5.57;;;16.50;93.20;;;;;;5095713;28;20027;-74
2021/06/06 04:22:46;;;;;;;12.82;5.82;;;16.50;93.40;;;;;;5113403;28;20019;-74
2021/06/06 04:25:13;;;;;;;10.20;5.70;;;16.40;93.40;;;;;;5113991;28;20105;-73
2021/06/06 04:27:39;;;;;;;9.68;5.18;;;16.40;93.40;;;;;;5094784;28;20051;-74
2021/06/06 04:30:08;;;;;;;9.35;5.55;;;16.40;93.40;;;;;;5095580;28;20118;-74
2021/06/06 04:32:34;;;;;;;11.73;5.70;;;16.40;93.50;;;;;;5095308;28;20085;-74
2021/06/06 04:34:59;;;;;;;11.35;5.97;;;16.40;93.50;;;;;;5095514;28;20059;-74
2021/06/06 04:37:25;;;;;;;9.63;5.22;;;16.40;93.60;;;;;;5113760;28;20102;-74
2021/06/06 04:39:51;;;;;;;11.75;5.97;;;16.40;93.60;;;;;;5094761;28;20031;-74
2021/06/06 04:42:19;;;;;;;10.38;5.88;;;16.40;93.60;;;;;;5095368;28;20027;-74
2021/06/06 04:44:45;;;;;;;9.52;5.55;;;16.40;93.60;;;;;;5094276;28;20448;-74
2021/06/06 04:47:11;;;;;;;10.13;5.65;;;16.40;93.60;;;;;;5095302;28;20110;-74
2021/06/06 04:49:39;;;;;;;10.98;5.38;;;16.40;93.60;;;;;;5094550;28;20036;-73
2021/06/06 04:52:07;;;;;;;9.18;5.00;;;16.40;93.60;;;;;;5113781;28;20080;-74
2021/06/06 04:54:33;;;;;;;10.50;5.50;;;16.40;93.70;;;;;;5113294;28;20460;-74
2021/06/06 04:56:59;;;;;;;11.63;5.72;;;16.40;93.60;;;;;;5095329;28;20122;-74
2021/06/06 04:59:25;;;;;;;11.25;5.47;;;16.40;93.60;;;;;;5095051;28;20487;-73
2021/06/06 05:01:50;;;;;;;13.57;5.50;;;16.40;93.60;;;;;;5094552;28;20040;-74
2021/06/06 05:04:17;;;;;;;11.57;5.60;;;16.40;93.70;;;;;;5095141;28;20039;-74
2021/06/06 05:06:43;;;;;;;10.80;5.28;;;16.50;93.60;;;;;;5112982;28;20104;-74
2021/06/06 05:09:09;;;;;;;10.60;5.85;;;16.40;93.70;;;;;;5094947;28;20456;-74
2021/06/06 05:11:34;;;;;;;9.00;5.00;;;16.50;93.60;;;;;;5094432;28;20028;-74
2021/06/06 05:14:00;;;;;;;8.25;4.85;;;16.50;93.60;;;;;;5095227;28;20023;-74
2021/06/06 05:16:26;;;;;;;8.55;5.05;;;16.50;93.60;;;;;;5094895;28;20023;-74
2021/06/06 05:18:54;;;;;;;9.85;5.60;;;16.50;93.60;;;;;;5112677;28;20454;-73
2021/06/06 05:21:20;;;;;;;9.57;5.65;;;16.50;93.60;;;;;;5113333;28;20031;-74
2021/06/06 05:23:46;;;;;;;9.02;5.05;;;16.50;93.50;;;;;;5112007;28;20040;-74
2021/06/06 05:26:11;;;;;;;7.63;4.57;;;16.50;93.50;;;;;;5094985;28;20522;-74
2021/06/06 05:28:37;;;;;;;10.52;4.90;;;16.50;93.60;;;;;;5112132;28;20099;-74
2021/06/06 05:31:06;;;;;;;11.90;5.40;;;16.50;93.70;;;;;;5094761;28;20030;-74
2021/06/06 05:33:32;;;;;;;8.93;5.03;;;16.40;93.70;;;;;;5094878;28;20023;-75
2021/06/06 05:35:58;;;;;;;9.43;5.50;;;16.40;93.60;;;;;;5094690;28;20123;-74
2021/06/06 05:38:26;;;;;;;7.43;4.57;;;16.40;93.80;;;;;;5112881;28;20103;-74
2021/06/06 05:40:52;;;;;;;7.43;4.72;;;16.50;93.70;;;;;;5094100;28;20299;-74
2021/06/06 05:43:18;;;;;;;8.77;4.60;;;16.50;93.50;;;;;;5112691;28;20031;-74
2021/06/06 05:45:46;;;;;;;8.10;4.53;;;16.50;93.50;;;;;;5094131;28;20083;-75
2021/06/06 05:48:12;;;;;;;9.32;4.53;;;16.50;93.50;;;;;;5094709;28;20027;-74
2021/06/06 05:50:41;;;;;;;8.57;4.68;;;16.50;93.60;;;;;;5094040;28;20485;-75
2021/06/06 05:53:08;;;;;;;9.25;4.93;;;16.60;93.60;;;;;;5094637;28;20376;-74
2021/06/06 05:55:33;;;;;;;7.28;4.40;;;16.60;93.50;;;;;;5093999;28;20036;-75
2021/06/06 05:57:59;;;;;;;8.98;4.65;;;16.50;93.70;;;;;;5096885;28;20034;-74
2021/06/06 06:00:30;;;;;;;7.38;4.30;;;16.50;93.70;;;;;;5098104;28;20060;-74
2021/06/06 06:02:56;;;;;;;6.20;4.00;;;16.50;93.50;;;;;;5097687;28;20035;-74
2021/06/06 06:05:22;;;;;;;7.45;4.20;;;16.50;93.60;;;;;;5116711;28;20251;-74
2021/06/06 06:07:48;;;;;;;8.20;4.47;;;16.50;93.70;;;;;;5097809;28;20028;-75
2021/06/06 06:10:19;;;;;;;7.95;4.22;;;16.50;93.80;;;;;;5116588;28;20031;-74
2021/06/06 06:12:44;;;;;;;6.13;4.20;;;16.60;93.80;;;;;;5097806;28;20019;-74
2021/06/06 06:15:11;;;;;;;6.57;4.03;;;16.60;93.80;;;;;;5098230;28;20080;-74
2021/06/06 06:17:37;;;;;;;7.55;4.07;;;16.60;93.80;;;;;;5097713;28;20119;-74
2021/06/06 06:20:07;;;;;;;5.40;3.72;;;16.60;93.70;;;;;;5098043;28;20118;-74
2021/06/06 06:22:33;;;;;;;7.15;3.70;;;16.70;93.50;;;;;;5116491;28;20035;-74
2021/06/06 06:24:59;;;;;;;5.05;3.45;;;16.70;93.30;;;;;;5115293;28;20043;-74
2021/06/06 06:27:24;;;;;;;6.72;3.63;;;16.80;93.30;;;;;;5098013;28;20035;-73
2021/06/06 06:29:50;;;;;;;5.60;3.40;;;16.80;93.20;;;;;;5097364;28;20122;-74
2021/06/06 06:32:16;;;;;;;5.55;3.10;;;16.80;93.10;;;;;;5097909;28;20024;-74
2021/06/06 06:34:41;;;;;;;6.15;3.25;;;16.80;93.10;;;;;;5115262;28;20028;-74
2021/06/06 06:37:08;;;;;;;5.60;3.78;;;16.80;93.00;;;;;;5097751;28;20020;-74
2021/06/06 06:39:34;;;;;;;5.82;3.78;;;16.80;93.20;;;;;;5097643;28;20027;-74
2021/06/06 06:42:00;;;;;;;5.57;3.50;;;16.80;93.20;;;;;;5115106;28;20032;-74
2021/06/06 06:44:25;;;;;;;5.80;3.58;;;16.80;93.20;;;;;;5115993;28;20441;-74
2021/06/06 06:46:51;;;;;;;7.43;3.58;;;16.80;93.20;;;;;;5097142;28;20031;-74
2021/06/06 06:49:17;;;;;;;6.47;3.58;;;16.80;93.10;;;;;;5115829;28;20476;-73
2021/06/06 06:51:43;;;;;;;5.60;3.55;;;16.80;93.10;;;;;;5096927;28;20024;-74
2021/06/06 06:54:09;;;;;;;6.82;3.78;;;16.80;93.20;;;;;;5097610;28;20478;-74
2021/06/06 06:56:34;;;;;;;6.07;3.53;;;16.80;93.10;;;;;;5115746;28;20533;-73
2021/06/06 06:59:00;;;;;;;8.43;3.50;;;16.80;93.10;;;;;;5096672;28;20586;-74
2021/06/06 07:01:27;;;;;;;7.82;3.90;;;16.90;93.10;;;;;;5097538;28;20422;-74
2021/06/06 07:03:53;;;;;;;7.00;3.90;;;16.90;93.10;;;;;;5115005;28;20024;-74
2021/06/06 07:06:21;;;;;;;6.35;4.10;;;16.90;93.40;;;;;;5097180;28;20030;-74
2021/06/06 07:08:47;;;;;;;6.63;3.55;;;16.80;93.30;;;;;;5096138;28;20032;-74
2021/06/06 07:11:16;;;;;;;5.85;3.75;;;16.80;93.30;;;;;;5097087;28;20023;-74
2021/06/06 07:13:42;;;;;;;7.72;3.85;;;16.80;93.30;;;;;;5096587;28;20023;-74
2021/06/06 07:16:09;;;;;;;5.20;3.33;;;16.90;93.30;;;;;;5096999;28;20077;-74
2021/06/06 07:18:35;;;;;;;6.63;3.28;;;16.90;93.30;;;;;;5097049;28;20490;-74
2021/06/06 07:21:05;;;;;;;6.32;3.70;;;16.90;93.20;;;;;;5096420;28;20062;-74
2021/06/06 07:23:32;;;;;;;5.63;3.25;;;16.90;93.20;;;;;;5115019;28;20028;-74
2021/06/06 07:26:02;;;;;;;7.07;3.40;;;16.90;93.30;;;;;;5095988;28;20226;-74
2021/06/06 07:28:29;;;;;;;4.85;2.90;;;17.00;93.20;;;;;;5096835;28;20031;-74
2021/06/06 07:31:00;;;;;;;7.15;3.60;;;17.00;93.20;;;;;;5114450;28;20028;-74
2021/06/06 07:33:33;;;;;;;5.78;3.58;;;17.00;93.20;;;;;;5096944;28;20468;-75
2021/06/06 07:36:00;;;;;;;6.30;3.38;;;17.10;93.20;;;;;;5114431;28;20039;-74
2021/06/06 07:38:26;;;;;;;6.38;3.55;;;17.10;93.10;;;;;;5096412;28;20024;-74
2021/06/06 07:40:54;;;;;;;6.45;3.78;;;17.00;93.20;;;;;;5095993;28;20050;-74
2021/06/06 07:43:20;;;;;;;6.45;3.95;;;17.00;93.20;;;;;;5096622;28;20085;-74
2021/06/06 07:45:46;;;;;;;6.22;3.78;;;17.00;93.30;;;;;;5095943;28;20110;-75
2021/06/06 07:48:12;;;;;;;6.30;3.50;;;17.00;93.40;;;;;;5114744;28;20103;-74
2021/06/06 07:50:42;;;;;;;5.93;3.70;;;17.00;93.40;;;;;;5093401;28;20024;-74
2021/06/06 07:53:09;;;;;;;5.55;3.33;;;17.00;93.30;;;;;;5095804;28;20507;-75
2021/06/06 07:55:35;;;;;;;5.32;3.22;;;17.00;93.20;;;;;;5095604;28;20049;-74
2021/06/06 07:58:01;;;;;;;5.78;3.60;;;17.10;93.20;;;;;;5095245;28;20024;-75
2021/06/06 08:00:37;;;;;;;7.85;3.90;;;17.10;93.30;;;;;;5095784;28;20027;-74
2021/06/06 08:03:04;;;;;;;9.75;4.82;;;17.10;93.40;;;;;;5113451;28;20023;-74
2021/06/06 08:05:29;;;;;;;9.13;5.28;;;17.20;93.30;;;;;;5124366;27;20124;-74
2021/06/06 08:07:55;;;;;;;9.27;5.18;;;17.20;93.20;;;;;;5119392;27;20478;-74
2021/06/06 08:10:24;;;;;;;11.55;6.78;;;17.30;93.30;;;;;;5112181;27;20110;-74
2021/06/06 08:12:50;;;;;;;13.10;7.32;;;17.30;93.30;;;;;;5095509;27;20052;-74
2021/06/06 08:15:17;;;;;;;14.23;7.63;;;17.20;93.20;;;;;;5113473;28;20069;-74
2021/06/06 08:17:43;;;;;;;16.13;7.60;;;17.20;93.20;;;;;;5094443;28;20040;-74
2021/06/06 08:20:18;;;;;;;11.02;6.43;;;17.20;93.10;;;;;;5095750;28;20027;-74
2021/06/06 08:22:43;;;;;;;13.48;6.93;;;17.30;93.10;;;;;;5100031;27;20030;-74
2021/06/06 08:25:11;;;;;;;12.25;6.50;;;17.30;93.10;;;;;;5107497;28;20047;-73
2021/06/06 08:27:38;;;;;;;13.63;6.35;;;17.30;93.10;;;;;;5124056;27;20027;-74
2021/06/06 08:30:09;;;;;;;14.50;7.20;;;17.30;93.10;;;;;;5099550;28;20055;-74
2021/06/06 08:32:35;;;;;;;10.43;6.45;;;17.30;93.10;;;;;;5130347;27;20473;-74
2021/06/06 08:35:01;;;;;;;16.55;8.52;;;17.40;92.90;;;;;;5100905;27;20042;-75
2021/06/06 08:37:27;;;;;;;10.23;6.40;;;17.40;92.90;;;;;;5105014;28;20480;-75
2021/06/06 08:39:53;;;;;;;11.93;6.45;;;17.40;93.00;;;;;;5107805;27;20031;-75
2021/06/06 08:42:23;;;;;;;13.13;5.95;;;17.40;93.00;;;;;;5098160;27;20035;-75
2021/06/06 08:45:19;;;;;;;16.75;8.32;;;17.40;92.90;;;;;;5109754;28;20024;-75
2021/06/06 08:47:45;;;;;;;16.50;9.10;;;17.50;92.70;;;;;;5125152;27;20102;-75
2021/06/06 08:50:15;;;;;;;16.05;8.73;;;17.50;93.00;;;;;;5116647;27;20500;-74
2021/06/06 08:53:07;;;;;;;12.32;7.68;;;17.40;93.00;;;;;;5098213;27;20019;-75
2021/06/06 08:55:57;;;;;;;17.33;8.88;;;17.50;92.90;;;;;;5103555;28;20035;-74
2021/06/06 08:58:48;;;;;;;18.40;9.82;;;17.60;93.00;;;;;;5111457;27;20482;-75
2021/06/06 09:01:22;;;;;;;16.10;9.10;;;17.50;93.00;;;;;;5102803;27;20039;-74
2021/06/06 09:03:50;;;;;;;21.38;10.40;;;17.50;93.10;;;;;;5101308;28;20035;-75
2021/06/06 09:06:31;;;;;;;20.05;10.77;;;17.60;92.90;;;;;;5129375;27;20496;-75
2021/06/06 09:08:59;;;;;;;24.40;11.77;;;17.60;92.60;;;;;;5099666;27;20484;-75
2021/06/06 09:11:29;;;;;;;21.63;11.77;;;17.70;92.60;;;;;;5104146;28;20036;-75
2021/06/06 09:13:56;;;;;;;22.67;11.30;;;17.70;92.30;;;;;;5126049;27;20068;-75
2021/06/06 09:16:29;;;;;;;26.42;12.00;;;17.70;92.40;;;;;;5097281;28;20024;-75
2021/06/06 09:19:09;;;;;;;26.60;11.25;;;17.70;92.10;;;;;;5108639;28;20105;-75
2021/06/06 09:21:46;;;;;;;23.58;11.63;;;17.80;91.90;;;;;;5094156;28;20418;-74
2021/06/06 09:24:14;;;;;;;22.35;11.43;;;17.90;91.80;;;;;;5128601;27;20058;-74
2021/06/06 09:26:41;;;;;;;26.65;12.25;;;17.90;91.70;;;;;;5115453;28;20049;-74
2021/06/06 09:29:29;;;;;;;22.65;11.50;;;17.80;92.10;;;;;;5107382;28;20035;-74
2021/06/06 09:32:08;;;;;;;20.95;11.50;;;17.80;92.00;;;;;;5111580;27;20368;-74
2021/06/06 09:34:34;;;;;;;25.70;11.60;;;17.80;92.00;;;;;;5104151;27;20027;-73
2021/06/06 09:37:12;;;;;;;21.88;10.95;;;17.90;92.10;;;;;;5132780;27;20015;-74
2021/06/06 09:39:44;;;;;;;22.95;10.88;;;18.00;91.80;;;;;;5130898;27;20034;-73
2021/06/06 09:42:29;;;;;;;24.05;11.48;;;18.00;92.00;;;;;;5105259;28;20392;-73
2021/06/06 09:45:10;;;;;;;23.48;12.18;;;18.00;92.00;;;;;;5091385;27;20016;-74
2021/06/06 09:47:35;;;;;;;23.87;12.53;;;18.10;91.90;;;;;;5126946;27;20024;-72
2021/06/06 09:50:19;;;;;;;24.73;12.75;;;18.10;91.70;;;;;;5101179;28;20038;-74
2021/06/06 09:52:47;;;;;;;26.60;13.18;;;18.10;91.50;;;;;;5104841;27;20072;-75
2021/06/06 09:55:21;;;;;;;25.55;12.80;;;18.10;91.70;;;;;;5131315;27;20038;-73
2021/06/06 09:57:47;;;;;;;32.17;14.60;;;18.20;91.80;;;;;;5131303;27;20050;-74
2021/06/06 10:00:19;;;;;;;25.02;12.73;;;18.10;91.90;;;;;;5104223;28;20472;-74
2021/06/06 10:02:52;;;;;;;25.52;12.95;;;18.10;91.70;;;;;;5088450;27;20026;-75
2021/06/06 10:05:40;;;;;;;28.08;13.57;;;18.20;91.50;;;;;;5112673;28;20125;-75
2021/06/06 10:08:16;;;;;;;21.52;12.07;;;18.20;91.30;;;;;;5115759;27;20027;-75
2021/06/06 10:10:51;;;;;;;25.90;12.82;;;18.20;91.40;;;;;;5088092;27;20079;-75
2021/06/06 10:13:29;;;;;;;27.98;13.63;;;18.30;91.30;;;;;;5112670;28;20032;-75
2021/06/06 10:16:05;;;;;;;25.77;13.38;;;18.30;91.40;;;;;;5132848;27;20019;-75
2021/06/06 10:18:39;;;;;;;25.25;12.95;;;18.20;91.60;;;;;;5103537;27;20057;-75
2021/06/06 10:21:19;;;;;;;25.15;13.43;;;18.30;91.50;;;;;;5125452;27;20023;-75
2021/06/06 10:23:49;;;;;;;28.85;13.55;;;18.30;91.50;;;;;;5107693;28;20044;-75
2021/06/06 10:26:37;;;;;;;26.52;13.25;;;18.30;91.30;;;;;;5117517;27;20059;-75
2021/06/06 10:29:10;;;;;;;30.63;13.85;;;18.40;91.40;;;;;;5092189;27;20039;-75
2021/06/06 10:31:42;;;;;;;25.80;13.73;;;18.40;91.10;;;;;;5109241;28;20475;-74
2021/06/06 10:34:27;;;;;;;30.65;14.18;;;18.40;90.90;;;;;;5134091;27;20516;-74
2021/06/06 10:36:53;;;;;;;30.30;14.30;;;18.50;90.50;;;;;;5089951;27;20011;-75
2021/06/06 10:39:25;;;;;;;29.33;13.57;;;18.70;90.40;;;;;;5111690;28;20094;-75
2021/06/06 10:42:23;;;;;;;26.95;13.65;;;18.70;90.20;;;;;;5113183;27;20028;-75
2021/06/06 10:45:04;;;;;;;23.55;13.05;;;18.80;90.00;;;;;;5098193;27;20035;-73
2021/06/06 10:47:47;;;;;;;24.60;12.68;;;18.90;90.10;;;;;;5106796;28;20031;-74
2021/06/06 10:50:22;;;;;;;23.58;12.13;;;19.00;90.50;;;;;;5098184;28;20499;-74
2021/06/06 10:52:51;;;;;;;30.75;16.48;;;19.10;90.70;;;;;;5084895;27;20023;-74
2021/06/06 10:55:31;;;;;;;22.85;12.70;;;19.20;89.80;;;;;;5108550;28;20031;-74
2021/06/06 10:58:08;;;;;;;24.95;12.50;;;19.30;89.50;;;;;;5128949;27;20027;-74
2021/06/06 11:00:40;;;;;;;23.35;12.38;;;19.40;89.60;;;;;;5100137;27;20042;-73
2021/06/06 11:03:18;;;;;;;;;;;19.50;89.20;;;;;;5109657;28;20112;-73
2021/06/06 11:05:49;;;;;;;17.50;9.73;;;19.60;89.70;;;;;;5109126;27;20352;-73
2021/06/06 11:08:39;;;;;;;20.33;9.45;;;19.60;88.60;;;;;;5099669;28;20035;-73
2021/06/06 11:11:14;;;;;;;16.70;9.50;;;19.60;88.80;;;;;;5088897;28;20504;-74
2021/06/06 11:13:44;;;;;;;16.73;10.13;;;19.60;89.80;;;;;;5107784;27;20027;-74
2021/06/06 11:16:16;;;;;;;20.40;10.57;;;19.70;89.10;;;;;;5118338;27;20586;-74
2021/06/06 11:18:53;;;;;;;18.83;10.75;;;19.90;87.70;;;;;;5081191;27;20038;-74
2021/06/06 11:21:32;;;;;;;19.45;10.55;;;20.00;88.20;;;;;;5105180;27;20035;-74
2021/06/06 11:24:02;;;;;;;18.60;10.38;;;20.20;89.10;;;;;;5101019;28;20075;-74
2021/06/06 11:26:33;;;;;;;22.15;10.45;;;20.30;88.90;;;;;;5131396;27;20057;-74
2021/06/06 11:29:19;;;;;;;;;;;20.40;87.10;;;;;;5120408;27;20083;-74
2021/06/06 11:32:25;;;;;;;21.67;11.27;;;20.60;85.40;;;;;;5103605;28;19911;-74
2021/06/06 11:34:56;;;;;;;21.55;12.02;;;20.70;86.00;;;;;;5085255;27;20023;-74
2021/06/06 11:37:28;;;;;;;19.50;11.00;;;20.70;84.40;;;;;;5106986;28;20031;-75
2021/06/06 11:39:56;;;;;;;21.52;11.43;;;20.80;84.70;;;;;;5109440;27;20023;-75
2021/06/06 11:42:22;;;;;;;19.45;11.00;;;20.70;84.20;;;;;;5099237;27;20089;-75
2021/06/06 11:45:16;;;;;;;18.98;10.82;;;20.70;85.60;;;;;;5111237;28;20020;-73
2021/06/06 11:47:55;;;;;;;20.25;12.00;;;20.60;85.10;;;;;;5108020;27;20031;-73
2021/06/06 11:50:35;;;;;;;19.52;10.73;;;20.50;85.50;;;;;;5098955;27;20046;-75
2021/06/06 11:53:12;;;;;;;170.02;77.22;;;20.30;86.50;;;;;;5106768;28;20032;-72
2021/06/06 11:55:45;;;;;;;83.60;42.70;;;20.20;86.80;;;;;;5105814;27;20027;-72
2021/06/06 11:58:19;;;;;;;31.10;16.90;;;20.10;86.90;;;;;;5099223;28;20065;-74
2021/06/06 12:00:49;;;;;;;30.80;14.38;;;20.00;87.00;;;;;;5083541;27;20486;-75
2021/06/06 12:03:18;;;;;;;23.37;13.00;;;20.00;87.50;;;;;;5107501;28;20525;-75
2021/06/06 12:06:18;;;;;;;24.75;13.95;;;20.00;87.40;;;;;;5108106;27;20049;-74
2021/06/06 12:08:47;;;;;;;23.42;12.65;;;20.00;87.20;;;;;;5083436;27;20034;-75
2021/06/06 12:11:15;;;;;;;24.38;12.77;;;20.10;86.70;;;;;;5107538;28;20031;-74
2021/06/06 12:13:42;;;;;;;21.80;11.90;;;20.30;85.60;;;;;;5107047;27;20336;-74
2021/06/06 12:16:18;;;;;;;21.83;11.57;;;20.50;85.10;;;;;;5099209;28;20122;-74
2021/06/06 12:18:47;;;;;;;22.85;12.10;;;20.50;84.70;;;;;;5080629;27;20023;-73
2021/06/06 12:21:18;;;;;;;20.25;11.50;;;20.50;84.80;;;;;;5103294;27;20034;-74
2021/06/06 12:23:50;;;;;;;21.65;12.02;;;20.50;85.20;;;;;;5102364;28;20058;-74
2021/06/06 12:26:31;;;;;;;20.67;10.88;;;20.50;86.80;;;;;;5111930;27;20031;-74
2021/06/06 12:28:58;;;;;;;20.02;11.00;;;20.50;85.80;;;;;;5099915;27;20035;-75
2021/06/06 12:31:39;;;;;;;24.15;11.82;;;20.50;85.70;;;;;;5105449;28;20020;-74
2021/06/06 12:34:29;;;;;;;20.98;11.52;;;20.60;84.70;;;;;;5109274;27;20277;-74
2021/06/06 12:37:11;;;;;;;20.23;11.40;;;20.60;85.10;;;;;;5104070;27;20033;-74
2021/06/06 12:39:41;;;;;;;21.70;11.60;;;20.50;85.50;;;;;;5103338;28;20126;-74
2021/06/06 12:42:08;;;;;;;21.75;12.27;;;20.60;84.60;;;;;;5111930;28;20070;-73
2021/06/06 12:44:39;;;;;;;20.40;12.27;;;20.60;84.30;;;;;;5110224;27;20027;-74
2021/06/06 12:47:31;;;;;;;21.63;12.27;;;20.70;83.70;;;;;;5094194;28;20073;-73
2021/06/06 12:49:59;;;;;;;21.45;11.10;;;20.90;83.20;;;;;;5113368;27;20047;-73
2021/06/06 12:52:32;;;;;;;21.33;11.82;;;21.10;83.70;;;;;;5095436;27;20030;-73
2021/06/06 12:55:11;;;;;;;18.58;11.50;;;21.30;83.60;;;;;;5107682;28;20020;-73
2021/06/06 12:57:38;;;;;;;24.55;12.52;;;21.20;83.00;;;;;;5124324;27;20031;-73